sensor_id;sensor_type;location;lat;lon;timestamp;temperature;humidity
23703;DHT22;12030;50.376;8.762;2022-09-21T00:00:48;7.30;99.90
23703;DHT22;12030;50.376;8.762;2022-09-21T00:03:14;7.20;99.90
23703;DHT22;12030;50.376;8.762;2022-09-21T00:05:40;7.20;99.90
23703;DHT22;12030;50.376;8.762;2022-09-21T00:08:07;7.00;99.90
23703;DHT22;12030;50.376;8.762;2022-09-21T00:10:33;7.00;99.90
23703;DHT22;12030;50.376;8.762;2022-09-21T00:12:59;7.00;99.90
23703;DHT22;12030;50.376;8.762;2022-09-21T00:15:28;7.00;99.90
23703;DHT22;12030;50.376;8.762;2022-09-21T00:17:55;7.00;99.90
23703;DHT22;12030;50.376;8.762;2022-09-21T00:20:21;7.00;99.90
23703;DHT22;12030;50.376;8.762;2022-09-21T00:22:47;7.00;99.90
23703;DHT22;12030;50.376;8.762;2022-09-21T00:25:13;6.90;99.90
23703;DHT22;12030;50.376;8.762;2022-09-21T00:27:39;6.90;99.90
23703;DHT22;12030;50.376;8.762;2022-09-21T00:30:06;6.90;99.90
23703;DHT22;12030;50.376;8.762;2022-09-21T00:32:34;6.80;99.90
23703;DHT22;12030;50.376;8.762;2022-09-21T00:35:00;6.90;99.90
23703;DHT22;12030;50.376;8.762;2022-09-21T00:37:27;6.90;99.90
23703;DHT22;12030;50.376;8.762;2022-09-21T00:39:53;6.90;99.90
23703;DHT22;12030;50.376;8.762;2022-09-21T00:42:30;6.80;99.90
23703;DHT22;12030;50.376;8.762;2022-09-21T00:44:56;6.80;99.90
23703;DHT22;12030;50.376;8.762;2022-09-21T00:49:58;6.70;99.90
23703;DHT22;12030;50.376;8.762;2022-09-21T00:52:26;6.80;99.90
23703;DHT22;12030;50.376;8.762;2022-09-21T00:54:57;6.70;99.90
23703;DHT22;12030;50.376;8.762;2022-09-21T00:57:25;6.70;99.90
23703;DHT22;12030;50.376;8.762;2022-09-21T00:59:53;6.70;99.90
23703;DHT22;12030;50.376;8.762;2022-09-21T01:02:20;6.70;99.90
23703;DHT22;12030;50.376;8.762;2022-09-21T01:04:46;6.70;99.90
23703;DHT22;12030;50.376;8.762;2022-09-21T01:07:19;6.70;99.90
23703;DHT22;12030;50.376;8.762;2022-09-21T01:09:49;6.70;99.90
23703;DHT22;12030;50.376;8.762;2022-09-21T01:15:44;6.60;99.90
23703;DHT22;12030;50.376;8.762;2022-09-21T01:18:19;6.60;99.90
23703;DHT22;12030;50.376;8.762;2022-09-21T01:21:14;6.60;99.90
23703;DHT22;12030;50.376;8.762;2022-09-21T01:24:12;6.60;99.90
23703;DHT22;12030;50.376;8.762;2022-09-21T01:27:02;6.70;99.90
23703;DHT22;12030;50.376;8.762;2022-09-21T01:29:44;6.70;99.90
23703;DHT22;12030;50.376;8.762;2022-09-21T01:32:25;6.60;99.90
23703;DHT22;12030;50.376;8.762;2022-09-21T01:35:15;6.60;99.90
23703;DHT22;12030;50.376;8.762;2022-09-21T01:37:45;6.50;99.90
23703;DHT22;12030;50.376;8.762;2022-09-21T01:40:18;6.50;99.90
23703;DHT22;12030;50.376;8.762;2022-09-21T01:42:47;6.50;99.90
23703;DHT22;12030;50.376;8.762;2022-09-21T01:45:17;6.60;99.90
23703;DHT22;12030;50.376;8.762;2022-09-21T01:47:46;6.60;99.90
23703;DHT22;12030;50.376;8.762;2022-09-21T01:50:13;6.60;99.90
23703;DHT22;12030;50.376;8.762;2022-09-21T01:52:46;6.60;99.90
23703;DHT22;12030;50.376;8.762;2022-09-21T01:58:30;6.50;99.90
23703;DHT22;12030;50.376;8.762;2022-09-21T02:00:58;6.60;99.90
23703;DHT22;12030;50.376;8.762;2022-09-21T02:03:37;6.60;99.90
23703;DHT22;12030;50.376;8.762;2022-09-21T02:06:07;6.70;99.90
23703;DHT22;12030;50.376;8.762;2022-09-21T02:08:33;6.70;99.90
23703;DHT22;12030;50.376;8.762;2022-09-21T02:11:02;6.60;99.90
23703;DHT22;12030;50.376;8.762;2022-09-21T02:13:36;6.60;99.90
23703;DHT22;12030;50.376;8.762;2022-09-21T02:27:03;6.80;99.90
23703;DHT22;12030;50.376;8.762;2022-09-21T02:35:12;6.70;99.90
23703;DHT22;12030;50.376;8.762;2022-09-21T02:37:48;6.70;99.90
23703;DHT22;12030;50.376;8.762;2022-09-21T02:43:20;6.70;99.90
23703;DHT22;12030;50.376;8.762;2022-09-21T02:45:51;6.70;99.90
23703;DHT22;12030;50.376;8.762;2022-09-21T02:48:29;6.60;99.90
23703;DHT22;12030;50.376;8.762;2022-09-21T02:51:04;6.70;99.90
23703;DHT22;12030;50.376;8.762;2022-09-21T02:53:33;6.70;99.90
23703;DHT22;12030;50.376;8.762;2022-09-21T02:56:01;6.70;99.90
23703;DHT22;12030;50.376;8.762;2022-09-21T02:58:44;6.60;99.90
23703;DHT22;12030;50.376;8.762;2022-09-21T03:01:12;6.50;99.90
23703;DHT22;12030;50.376;8.762;2022-09-21T03:03:39;6.50;99.90
23703;DHT22;12030;50.376;8.762;2022-09-21T03:06:05;6.40;99.90
23703;DHT22;12030;50.376;8.762;2022-09-21T03:08:31;6.30;99.90
23703;DHT22;12030;50.376;8.762;2022-09-21T03:10:56;6.40;99.90
23703;DHT22;12030;50.376;8.762;2022-09-21T03:13:22;6.50;99.90
23703;DHT22;12030;50.376;8.762;2022-09-21T03:15:48;6.50;99.90
23703;DHT22;12030;50.376;8.762;2022-09-21T03:18:14;6.50;99.90
23703;DHT22;12030;50.376;8.762;2022-09-21T03:20:42;6.50;99.90
23703;DHT22;12030;50.376;8.762;2022-09-21T03:23:11;6.60;99.90
23703;DHT22;12030;50.376;8.762;2022-09-21T03:25:36;6.60;99.90
23703;DHT22;12030;50.376;8.762;2022-09-21T03:28:03;6.70;99.90
23703;DHT22;12030;50.376;8.762;2022-09-21T03:30:28;6.70;99.90
23703;DHT22;12030;50.376;8.762;2022-09-21T03:32:54;6.80;99.90
23703;DHT22;12030;50.376;8.762;2022-09-21T03:35:22;6.80;99.90
23703;DHT22;12030;50.376;8.762;2022-09-21T03:37:49;6.80;99.90
23703;DHT22;12030;50.376;8.762;2022-09-21T03:40:15;6.80;99.90
23703;DHT22;12030;50.376;8.762;2022-09-21T03:42:42;6.80;99.90
23703;DHT22;12030;50.376;8.762;2022-09-21T03:45:09;6.80;99.90
23703;DHT22;12030;50.376;8.762;2022-09-21T03:47:35;6.80;99.90
23703;DHT22;12030;50.376;8.762;2022-09-21T03:50:01;6.80;99.90
23703;DHT22;12030;50.376;8.762;2022-09-21T03:52:27;6.80;99.90
23703;DHT22;12030;50.376;8.762;2022-09-21T03:54:53;6.80;99.90
23703;DHT22;12030;50.376;8.762;2022-09-21T03:57:20;6.90;99.90
23703;DHT22;12030;50.376;8.762;2022-09-21T03:59:45;6.90;99.90
23703;DHT22;12030;50.376;8.762;2022-09-21T04:02:11;6.80;99.90
23703;DHT22;12030;50.376;8.762;2022-09-21T04:04:36;7.00;99.90
23703;DHT22;12030;50.376;8.762;2022-09-21T04:07:02;6.80;99.90
23703;DHT22;12030;50.376;8.762;2022-09-21T04:09:29;6.80;99.90
23703;DHT22;12030;50.376;8.762;2022-09-21T04:11:54;6.80;99.90
23703;DHT22;12030;50.376;8.762;2022-09-21T04:14:20;6.70;99.90
23703;DHT22;12030;50.376;8.762;2022-09-21T04:16:47;6.70;99.90
23703;DHT22;12030;50.376;8.762;2022-09-21T04:19:15;6.70;99.90
23703;DHT22;12030;50.376;8.762;2022-09-21T04:21:41;6.60;99.90
23703;DHT22;12030;50.376;8.762;2022-09-21T04:24:06;6.60;99.90
23703;DHT22;12030;50.376;8.762;2022-09-21T04:26:34;6.60;99.90
23703;DHT22;12030;50.376;8.762;2022-09-21T04:29:00;6.60;99.90
23703;DHT22;12030;50.376;8.762;2022-09-21T04:31:27;6.50;99.90
23703;DHT22;12030;50.376;8.762;2022-09-21T04:33:55;6.60;99.90
23703;DHT22;12030;50.376;8.762;2022-09-21T04:36:22;6.60;99.90
23703;DHT22;12030;50.376;8.762;2022-09-21T04:38:48;6.50;99.90
23703;DHT22;12030;50.376;8.762;2022-09-21T04:41:15;6.50;99.90
23703;DHT22;12030;50.376;8.762;2022-09-21T04:43:42;6.40;99.90
23703;DHT22;12030;50.376;8.762;2022-09-21T04:46:10;6.40;99.90
23703;DHT22;12030;50.376;8.762;2022-09-21T04:48:37;6.40;99.90
23703;DHT22;12030;50.376;8.762;2022-09-21T04:51:03;6.40;99.90
23703;DHT22;12030;50.376;8.762;2022-09-21T04:53:29;6.40;99.90
23703;DHT22;12030;50.376;8.762;2022-09-21T04:55:55;6.40;99.90
23703;DHT22;12030;50.376;8.762;2022-09-21T04:58:23;6.40;99.90
23703;DHT22;12030;50.376;8.762;2022-09-21T05:00:53;6.40;99.90
23703;DHT22;12030;50.376;8.762;2022-09-21T05:03:21;6.40;99.90
23703;DHT22;12030;50.376;8.762;2022-09-21T05:05:54;6.30;99.90
23703;DHT22;12030;50.376;8.762;2022-09-21T05:08:20;6.30;99.90
23703;DHT22;12030;50.376;8.762;2022-09-21T05:11:10;6.20;99.90
23703;DHT22;12030;50.376;8.762;2022-09-21T05:13:37;6.20;99.90
23703;DHT22;12030;50.376;8.762;2022-09-21T05:16:03;6.20;99.90
23703;DHT22;12030;50.376;8.762;2022-09-21T05:18:28;6.10;99.90
23703;DHT22;12030;50.376;8.762;2022-09-21T05:20:55;6.20;99.90
23703;DHT22;12030;50.376;8.762;2022-09-21T05:23:24;6.10;99.90
23703;DHT22;12030;50.376;8.762;2022-09-21T05:25:51;6.10;99.90
23703;DHT22;12030;50.376;8.762;2022-09-21T05:28:17;6.00;99.90
23703;DHT22;12030;50.376;8.762;2022-09-21T05:30:45;6.00;99.90
23703;DHT22;12030;50.376;8.762;2022-09-21T05:33:15;6.00;99.90
23703;DHT22;12030;50.376;8.762;2022-09-21T05:38:28;5.90;99.90
23703;DHT22;12030;50.376;8.762;2022-09-21T05:40:54;6.00;99.90
23703;DHT22;12030;50.376;8.762;2022-09-21T05:43:20;6.00;99.90
23703;DHT22;12030;50.376;8.762;2022-09-21T05:45:53;6.00;99.90
23703;DHT22;12030;50.376;8.762;2022-09-21T05:48:24;6.00;99.90
23703;DHT22;12030;50.376;8.762;2022-09-21T05:53:49;6.00;99.90
23703;DHT22;12030;50.376;8.762;2022-09-21T05:59:32;5.90;99.90
23703;DHT22;12030;50.376;8.762;2022-09-21T06:02:25;5.90;99.90
23703;DHT22;12030;50.376;8.762;2022-09-21T06:04:55;5.90;99.90
23703;DHT22;12030;50.376;8.762;2022-09-21T06:07:21;5.90;99.90
23703;DHT22;12030;50.376;8.762;2022-09-21T06:09:47;5.90;99.90
23703;DHT22;12030;50.376;8.762;2022-09-21T06:12:12;6.00;99.90
23703;DHT22;12030;50.376;8.762;2022-09-21T06:14:38;6.00;99.90
23703;DHT22;12030;50.376;8.762;2022-09-21T06:17:04;6.00;99.90
23703;DHT22;12030;50.376;8.762;2022-09-21T06:19:29;6.10;99.90
23703;DHT22;12030;50.376;8.762;2022-09-21T06:21:55;6.10;99.90
23703;DHT22;12030;50.376;8.762;2022-09-21T06:24:20;6.20;99.90
23703;DHT22;12030;50.376;8.762;2022-09-21T06:26:46;6.40;99.90
23703;DHT22;12030;50.376;8.762;2022-09-21T06:29:11;6.50;99.90
23703;DHT22;12030;50.376;8.762;2022-09-21T06:31:37;6.60;99.90
23703;DHT22;12030;50.376;8.762;2022-09-21T06:34:02;6.60;99.90
23703;DHT22;12030;50.376;8.762;2022-09-21T06:36:28;6.70;99.90
23703;DHT22;12030;50.376;8.762;2022-09-21T06:38:54;6.80;99.90
23703;DHT22;12030;50.376;8.762;2022-09-21T06:41:19;6.90;99.90
23703;DHT22;12030;50.376;8.762;2022-09-21T06:43:45;7.00;99.90
23703;DHT22;12030;50.376;8.762;2022-09-21T06:46:10;7.10;99.90
23703;DHT22;12030;50.376;8.762;2022-09-21T06:48:36;7.20;99.90
23703;DHT22;12030;50.376;8.762;2022-09-21T06:51:03;7.30;99.90
23703;DHT22;12030;50.376;8.762;2022-09-21T06:53:31;7.40;99.90
23703;DHT22;12030;50.376;8.762;2022-09-21T06:56:05;7.40;99.90
23703;DHT22;12030;50.376;8.762;2022-09-21T06:58:31;7.50;99.90
23703;DHT22;12030;50.376;8.762;2022-09-21T07:01:04;7.60;99.90
23703;DHT22;12030;50.376;8.762;2022-09-21T07:03:30;7.70;99.90
23703;DHT22;12030;50.376;8.762;2022-09-21T07:05:56;7.70;99.90
23703;DHT22;12030;50.376;8.762;2022-09-21T07:08:21;7.80;99.90
23703;DHT22;12030;50.376;8.762;2022-09-21T07:10:48;7.90;99.90
23703;DHT22;12030;50.376;8.762;2022-09-21T07:13:13;8.00;99.90
23703;DHT22;12030;50.376;8.762;2022-09-21T07:15:40;8.10;99.90
23703;DHT22;12030;50.376;8.762;2022-09-21T07:18:12;8.20;99.90
23703;DHT22;12030;50.376;8.762;2022-09-21T07:20:39;8.20;99.90
23703;DHT22;12030;50.376;8.762;2022-09-21T07:23:12;8.40;99.90
23703;DHT22;12030;50.376;8.762;2022-09-21T07:25:40;8.40;99.90
23703;DHT22;12030;50.376;8.762;2022-09-21T07:28:06;8.50;99.90
23703;DHT22;12030;50.376;8.762;2022-09-21T07:30:31;8.60;99.90
23703;DHT22;12030;50.376;8.762;2022-09-21T07:32:57;8.70;99.90
23703;DHT22;12030;50.376;8.762;2022-09-21T07:35:23;8.70;99.90
23703;DHT22;12030;50.376;8.762;2022-09-21T07:37:49;8.90;99.90
23703;DHT22;12030;50.376;8.762;2022-09-21T07:40:14;8.90;99.90
23703;DHT22;12030;50.376;8.762;2022-09-21T07:42:40;9.00;99.90
23703;DHT22;12030;50.376;8.762;2022-09-21T07:45:06;9.10;99.90
23703;DHT22;12030;50.376;8.762;2022-09-21T07:47:32;9.10;99.90
23703;DHT22;12030;50.376;8.762;2022-09-21T07:49:57;9.20;99.90
23703;DHT22;12030;50.376;8.762;2022-09-21T07:52:23;9.30;99.90
23703;DHT22;12030;50.376;8.762;2022-09-21T07:54:48;9.40;99.90
23703;DHT22;12030;50.376;8.762;2022-09-21T07:57:14;9.40;99.90
23703;DHT22;12030;50.376;8.762;2022-09-21T07:59:58;9.50;99.90
23703;DHT22;12030;50.376;8.762;2022-09-21T08:02:23;9.60;99.90
23703;DHT22;12030;50.376;8.762;2022-09-21T08:04:49;9.70;99.90
23703;DHT22;12030;50.376;8.762;2022-09-21T08:07:15;9.80;99.90
23703;DHT22;12030;50.376;8.762;2022-09-21T08:09:40;9.90;99.90
23703;DHT22;12030;50.376;8.762;2022-09-21T08:12:06;9.90;99.90
23703;DHT22;12030;50.376;8.762;2022-09-21T08:14:33;10.00;99.90
23703;DHT22;12030;50.376;8.762;2022-09-21T08:17:00;10.00;99.90
23703;DHT22;12030;50.376;8.762;2022-09-21T08:19:26;10.20;99.90
23703;DHT22;12030;50.376;8.762;2022-09-21T08:21:52;10.30;99.90
23703;DHT22;12030;50.376;8.762;2022-09-21T08:24:18;10.40;99.90
23703;DHT22;12030;50.376;8.762;2022-09-21T08:26:44;10.50;99.90
23703;DHT22;12030;50.376;8.762;2022-09-21T08:29:10;10.60;99.90
23703;DHT22;12030;50.376;8.762;2022-09-21T08:31:38;10.60;99.90
23703;DHT22;12030;50.376;8.762;2022-09-21T08:34:04;10.80;99.90
23703;DHT22;12030;50.376;8.762;2022-09-21T08:36:29;10.90;99.90
23703;DHT22;12030;50.376;8.762;2022-09-21T08:38:55;10.90;99.90
23703;DHT22;12030;50.376;8.762;2022-09-21T08:46:42;11.20;99.90
23703;DHT22;12030;50.376;8.762;2022-09-21T08:49:18;11.30;99.90
23703;DHT22;12030;50.376;8.762;2022-09-21T08:51:57;11.40;99.90
23703;DHT22;12030;50.376;8.762;2022-09-21T08:54:29;11.50;99.90
23703;DHT22;12030;50.376;8.762;2022-09-21T08:56:58;11.60;99.90
23703;DHT22;12030;50.376;8.762;2022-09-21T08:59:24;11.60;99.90
23703;DHT22;12030;50.376;8.762;2022-09-21T09:01:57;11.70;99.90
23703;DHT22;12030;50.376;8.762;2022-09-21T09:04:52;11.80;99.90
23703;DHT22;12030;50.376;8.762;2022-09-21T09:07:44;11.90;99.90
23703;DHT22;12030;50.376;8.762;2022-09-21T09:13:13;12.20;99.90
23703;DHT22;12030;50.376;8.762;2022-09-21T09:15:47;12.30;99.90
23703;DHT22;12030;50.376;8.762;2022-09-21T09:21:11;12.40;99.90
23703;DHT22;12030;50.376;8.762;2022-09-21T09:23:44;12.40;99.90
23703;DHT22;12030;50.376;8.762;2022-09-21T09:26:17;12.50;99.90
23703;DHT22;12030;50.376;8.762;2022-09-21T09:28:50;12.60;99.90
23703;DHT22;12030;50.376;8.762;2022-09-21T09:31:31;12.70;99.90
23703;DHT22;12030;50.376;8.762;2022-09-21T09:34:18;12.70;99.90
23703;DHT22;12030;50.376;8.762;2022-09-21T09:36:51;12.90;99.90
23703;DHT22;12030;50.376;8.762;2022-09-21T09:39:18;12.90;99.90
23703;DHT22;12030;50.376;8.762;2022-09-21T09:44:44;13.00;99.90
23703;DHT22;12030;50.376;8.762;2022-09-21T09:50:23;13.20;99.90
23703;DHT22;12030;50.376;8.762;2022-09-21T09:52:50;13.30;99.90
23703;DHT22;12030;50.376;8.762;2022-09-21T09:55:29;13.40;99.90
23703;DHT22;12030;50.376;8.762;2022-09-21T09:58:00;13.50;99.90
23703;DHT22;12030;50.376;8.762;2022-09-21T10:00:26;13.50;99.90
23703;DHT22;12030;50.376;8.762;2022-09-21T10:02:56;13.60;99.90
23703;DHT22;12030;50.376;8.762;2022-09-21T10:05:35;13.70;99.90
23703;DHT22;12030;50.376;8.762;2022-09-21T10:08:03;13.70;99.90
23703;DHT22;12030;50.376;8.762;2022-09-21T10:13:18;13.90;99.90
23703;DHT22;12030;50.376;8.762;2022-09-21T10:15:53;13.80;99.90
23703;DHT22;12030;50.376;8.762;2022-09-21T10:18:36;14.00;99.90
23703;DHT22;12030;50.376;8.762;2022-09-21T10:21:06;13.90;99.90
23703;DHT22;12030;50.376;8.762;2022-09-21T10:23:33;14.00;99.90
23703;DHT22;12030;50.376;8.762;2022-09-21T10:28:30;14.20;99.90
23703;DHT22;12030;50.376;8.762;2022-09-21T10:31:11;14.30;99.90
23703;DHT22;12030;50.376;8.762;2022-09-21T10:33:50;14.40;99.90
23703;DHT22;12030;50.376;8.762;2022-09-21T10:36:36;14.50;99.90
23703;DHT22;12030;50.376;8.762;2022-09-21T10:39:18;14.50;99.90
23703;DHT22;12030;50.376;8.762;2022-09-21T10:41:53;14.60;99.90
23703;DHT22;12030;50.376;8.762;2022-09-21T10:44:21;14.70;99.90
23703;DHT22;12030;50.376;8.762;2022-09-21T10:46:48;14.80;99.90
23703;DHT22;12030;50.376;8.762;2022-09-21T10:49:26;14.80;99.90
23703;DHT22;12030;50.376;8.762;2022-09-21T10:51:54;14.90;99.90
23703;DHT22;12030;50.376;8.762;2022-09-21T10:54:27;15.00;99.90
23703;DHT22;12030;50.376;8.762;2022-09-21T10:57:05;15.00;99.90
23703;DHT22;12030;50.376;8.762;2022-09-21T10:59:32;15.10;99.90
23703;DHT22;12030;50.376;8.762;2022-09-21T11:02:01;15.10;99.90
23703;DHT22;12030;50.376;8.762;2022-09-21T11:04:32;15.20;99.90
23703;DHT22;12030;50.376;8.762;2022-09-21T11:07:08;15.30;99.90
23703;DHT22;12030;50.376;8.762;2022-09-21T11:09:57;15.30;99.90
23703;DHT22;12030;50.376;8.762;2022-09-21T11:12:59;15.50;99.90
23703;DHT22;12030;50.376;8.762;2022-09-21T11:15:48;15.50;99.90
23703;DHT22;12030;50.376;8.762;2022-09-21T11:18:45;15.60;99.90
23703;DHT22;12030;50.376;8.762;2022-09-21T11:21:46;15.70;99.90
23703;DHT22;12030;50.376;8.762;2022-09-21T11:27:20;15.90;99.90
23703;DHT22;12030;50.376;8.762;2022-09-21T11:35:46;15.60;99.90
23703;DHT22;12030;50.376;8.762;2022-09-21T11:38:21;15.80;99.90
23703;DHT22;12030;50.376;8.762;2022-09-21T11:53:03;16.30;97.50
23703;DHT22;12030;50.376;8.762;2022-09-21T12:03:48;16.60;98.70
23703;DHT22;12030;50.376;8.762;2022-09-21T12:06:52;16.70;98.80
23703;DHT22;12030;50.376;8.762;2022-09-21T12:12:08;16.80;97.10
23703;DHT22;12030;50.376;8.762;2022-09-21T12:14:50;16.90;97.00
23703;DHT22;12030;50.376;8.762;2022-09-21T12:22:35;17.00;95.90
23703;DHT22;12030;50.376;8.762;2022-09-21T12:25:26;17.00;96.20
23703;DHT22;12030;50.376;8.762;2022-09-21T12:28:01;17.10;98.10
23703;DHT22;12030;50.376;8.762;2022-09-21T12:30:29;17.30;97.20
23703;DHT22;12030;50.376;8.762;2022-09-21T12:33:03;17.50;98.40
23703;DHT22;12030;50.376;8.762;2022-09-21T12:35:36;17.60;97.20
23703;DHT22;12030;50.376;8.762;2022-09-21T12:38:14;17.70;97.80
23703;DHT22;12030;50.376;8.762;2022-09-21T12:40:51;17.80;98.00
23703;DHT22;12030;50.376;8.762;2022-09-21T12:43:38;17.80;95.60
23703;DHT22;12030;50.376;8.762;2022-09-21T12:48:37;18.00;95.70
23703;DHT22;12030;50.376;8.762;2022-09-21T12:53:40;18.20;95.60
23703;DHT22;12030;50.376;8.762;2022-09-21T12:59:03;18.30;95.60
23703;DHT22;12030;50.376;8.762;2022-09-21T13:04:30;18.20;93.70
23703;DHT22;12030;50.376;8.762;2022-09-21T13:07:09;18.20;93.40
23703;DHT22;12030;50.376;8.762;2022-09-21T13:09:41;18.30;93.60
23703;DHT22;12030;50.376;8.762;2022-09-21T13:12:18;18.50;95.80
23703;DHT22;12030;50.376;8.762;2022-09-21T13:14:47;18.30;93.00
23703;DHT22;12030;50.376;8.762;2022-09-21T13:17:26;18.80;95.30
23703;DHT22;12030;50.376;8.762;2022-09-21T13:20:25;18.10;96.00
23703;DHT22;12030;50.376;8.762;2022-09-21T13:22:57;18.30;96.20
23703;DHT22;12030;50.376;8.762;2022-09-21T13:25:25;18.60;95.50
23703;DHT22;12030;50.376;8.762;2022-09-21T13:30:44;18.70;95.10
23703;DHT22;12030;50.376;8.762;2022-09-21T13:39:03;18.90;94.70
23703;DHT22;12030;50.376;8.762;2022-09-21T13:41:26;19.00;93.50
23703;DHT22;12030;50.376;8.762;2022-09-21T13:51:59;18.60;95.20
23703;DHT22;12030;50.376;8.762;2022-09-21T13:54:32;18.50;94.00
23703;DHT22;12030;50.376;8.762;2022-09-21T13:58:15;18.80;94.00
23703;DHT22;12030;50.376;8.762;2022-09-21T14:10:32;20.50;92.90
23703;DHT22;12030;50.376;8.762;2022-09-21T14:13:01;20.70;93.90
23703;DHT22;12030;50.376;8.762;2022-09-21T14:15:30;20.40;93.60
23703;DHT22;12030;50.376;8.762;2022-09-21T14:23:33;20.60;92.20
23703;DHT22;12030;50.376;8.762;2022-09-21T14:26:00;20.70;91.50
23703;DHT22;12030;50.376;8.762;2022-09-21T14:28:37;20.70;92.20
23703;DHT22;12030;50.376;8.762;2022-09-21T14:31:13;20.50;91.80
23703;DHT22;12030;50.376;8.762;2022-09-21T14:34:01;20.00;92.20
23703;DHT22;12030;50.376;8.762;2022-09-21T14:36:48;19.50;92.60
23703;DHT22;12030;50.376;8.762;2022-09-21T14:39:30;19.00;93.80
23703;DHT22;12030;50.376;8.762;2022-09-21T14:42:01;18.60;93.90
23703;DHT22;12030;50.376;8.762;2022-09-21T14:44:29;18.40;95.30
23703;DHT22;12030;50.376;8.762;2022-09-21T15:00:49;17.20;96.00
23703;DHT22;12030;50.376;8.762;2022-09-21T15:03:43;17.00;97.40
23703;DHT22;12030;50.376;8.762;2022-09-21T15:06:30;17.00;98.10
23703;DHT22;12030;50.376;8.762;2022-09-21T15:09:44;17.40;99.30
23703;DHT22;12030;50.376;8.762;2022-09-21T15:15:25;18.50;99.90
23703;DHT22;12030;50.376;8.762;2022-09-21T15:17:56;18.70;98.40
23703;DHT22;12030;50.376;8.762;2022-09-21T15:20:24;19.00;96.40
23703;DHT22;12030;50.376;8.762;2022-09-21T15:22:54;19.20;94.80
23703;DHT22;12030;50.376;8.762;2022-09-21T15:25:20;19.20;92.40
23703;DHT22;12030;50.376;8.762;2022-09-21T15:27:46;19.40;92.10
23703;DHT22;12030;50.376;8.762;2022-09-21T15:30:21;19.70;91.30
23703;DHT22;12030;50.376;8.762;2022-09-21T15:32:51;19.90;92.10
23703;DHT22;12030;50.376;8.762;2022-09-21T15:35:23;20.00;91.40
23703;DHT22;12030;50.376;8.762;2022-09-21T15:37:52;20.10;91.20
23703;DHT22;12030;50.376;8.762;2022-09-21T15:40:45;20.10;90.40
23703;DHT22;12030;50.376;8.762;2022-09-21T15:46:01;20.30;90.20
23703;DHT22;12030;50.376;8.762;2022-09-21T15:48:38;20.30;88.10
23703;DHT22;12030;50.376;8.762;2022-09-21T15:53:44;20.10;88.70
23703;DHT22;12030;50.376;8.762;2022-09-21T15:56:23;20.10;89.10
23703;DHT22;12030;50.376;8.762;2022-09-21T15:58:51;20.00;90.30
23703;DHT22;12030;50.376;8.762;2022-09-21T16:01:22;20.10;90.10
23703;DHT22;12030;50.376;8.762;2022-09-21T16:04:00;20.20;90.30
23703;DHT22;12030;50.376;8.762;2022-09-21T16:06:34;20.10;91.10
23703;DHT22;12030;50.376;8.762;2022-09-21T16:11:49;20.00;90.00
23703;DHT22;12030;50.376;8.762;2022-09-21T16:14:16;20.10;89.30
23703;DHT22;12030;50.376;8.762;2022-09-21T16:24:57;20.00;91.80
23703;DHT22;12030;50.376;8.762;2022-09-21T16:27:25;20.10;91.50
23703;DHT22;12030;50.376;8.762;2022-09-21T16:29:54;20.20;90.30
23703;DHT22;12030;50.376;8.762;2022-09-21T16:34:52;20.70;89.70
23703;DHT22;12030;50.376;8.762;2022-09-21T16:39:45;20.80;90.10
23703;DHT22;12030;50.376;8.762;2022-09-21T16:42:11;20.60;88.20
23703;DHT22;12030;50.376;8.762;2022-09-21T16:44:38;20.10;90.90
23703;DHT22;12030;50.376;8.762;2022-09-21T16:49:38;19.80;92.60
23703;DHT22;12030;50.376;8.762;2022-09-21T16:52:04;19.80;91.90
23703;DHT22;12030;50.376;8.762;2022-09-21T16:54:31;19.70;92.80
23703;DHT22;12030;50.376;8.762;2022-09-21T16:57:00;19.40;93.70
23703;DHT22;12030;50.376;8.762;2022-09-21T16:59:26;18.90;94.40
23703;DHT22;12030;50.376;8.762;2022-09-21T17:01:54;18.50;96.20
23703;DHT22;12030;50.376;8.762;2022-09-21T17:04:23;17.90;98.00
23703;DHT22;12030;50.376;8.762;2022-09-21T17:06:50;17.50;98.70
23703;DHT22;12030;50.376;8.762;2022-09-21T17:09:22;17.10;99.90
23703;DHT22;12030;50.376;8.762;2022-09-21T17:11:48;16.80;99.90
23703;DHT22;12030;50.376;8.762;2022-09-21T17:14:16;16.50;99.90
23703;DHT22;12030;50.376;8.762;2022-09-21T17:16:44;16.20;99.90
23703;DHT22;12030;50.376;8.762;2022-09-21T17:19:10;15.90;99.90
23703;DHT22;12030;50.376;8.762;2022-09-21T17:21:35;15.80;99.90
23703;DHT22;12030;50.376;8.762;2022-09-21T17:24:01;15.60;99.90
23703;DHT22;12030;50.376;8.762;2022-09-21T17:26:26;15.50;99.90
23703;DHT22;12030;50.376;8.762;2022-09-21T17:28:52;15.30;99.90
23703;DHT22;12030;50.376;8.762;2022-09-21T17:31:19;15.30;99.90
23703;DHT22;12030;50.376;8.762;2022-09-21T17:33:47;15.10;99.90
23703;DHT22;12030;50.376;8.762;2022-09-21T17:36:15;15.00;99.90
23703;DHT22;12030;50.376;8.762;2022-09-21T17:38:41;14.90;99.90
23703;DHT22;12030;50.376;8.762;2022-09-21T17:41:24;14.80;99.90
23703;DHT22;12030;50.376;8.762;2022-09-21T17:44:15;14.80;99.90
23703;DHT22;12030;50.376;8.762;2022-09-21T17:47:16;14.70;99.90
23703;DHT22;12030;50.376;8.762;2022-09-21T17:49:43;14.70;99.90
23703;DHT22;12030;50.376;8.762;2022-09-21T17:52:17;14.60;99.90
23703;DHT22;12030;50.376;8.762;2022-09-21T17:55:02;14.50;99.90
23703;DHT22;12030;50.376;8.762;2022-09-21T18:00:17;14.30;99.90
23703;DHT22;12030;50.376;8.762;2022-09-21T18:02:43;14.20;99.90
23703;DHT22;12030;50.376;8.762;2022-09-21T18:05:20;14.20;99.90
23703;DHT22;12030;50.376;8.762;2022-09-21T18:07:47;14.20;99.90
23703;DHT22;12030;50.376;8.762;2022-09-21T18:10:13;14.30;99.90
23703;DHT22;12030;50.376;8.762;2022-09-21T18:15:32;14.30;99.90
23703;DHT22;12030;50.376;8.762;2022-09-21T18:18:29;14.30;99.90
23703;DHT22;12030;50.376;8.762;2022-09-21T18:21:03;14.20;99.90
23703;DHT22;12030;50.376;8.762;2022-09-21T18:26:17;14.10;99.90
23703;DHT22;12030;50.376;8.762;2022-09-21T18:28:47;14.10;99.90
23703;DHT22;12030;50.376;8.762;2022-09-21T18:45:28;13.90;99.90
23703;DHT22;12030;50.376;8.762;2022-09-21T18:48:33;13.80;99.90
23703;DHT22;12030;50.376;8.762;2022-09-21T18:53:51;13.80;99.90
23703;DHT22;12030;50.376;8.762;2022-09-21T18:56:21;13.70;99.90
23703;DHT22;12030;50.376;8.762;2022-09-21T18:58:46;13.60;99.90
23703;DHT22;12030;50.376;8.762;2022-09-21T19:01:14;13.60;99.90
23703;DHT22;12030;50.376;8.762;2022-09-21T19:03:41;13.50;99.90
23703;DHT22;12030;50.376;8.762;2022-09-21T19:06:38;13.60;99.90
23703;DHT22;12030;50.376;8.762;2022-09-21T19:09:26;13.50;99.90
23703;DHT22;12030;50.376;8.762;2022-09-21T19:12:22;13.50;99.90
23703;DHT22;12030;50.376;8.762;2022-09-21T19:15:33;13.30;99.90
23703;DHT22;12030;50.376;8.762;2022-09-21T19:20:55;13.10;99.90
23703;DHT22;12030;50.376;8.762;2022-09-21T19:23:57;12.90;99.90
23703;DHT22;12030;50.376;8.762;2022-09-21T19:29:26;12.70;99.90
23703;DHT22;12030;50.376;8.762;2022-09-21T19:31:55;12.60;99.90
23703;DHT22;12030;50.376;8.762;2022-09-21T19:34:21;12.30;99.90
23703;DHT22;12030;50.376;8.762;2022-09-21T19:36:46;12.10;99.90